Latest Weather Observations for Munglinup West

IDW60801

Issued at 5:03 am WST Tuesday 6 December 2022 (issued every 10 minutes, with the page automatically refreshed every 10 minutes)

About weather observations | Map of weather stations | Latest weather observations for WA | Other Formats
Station Details ID: 012044 Name: MUNGLINUP WEST Lat: -33.55 Lon: 120.70 Height: 220.0 m
Data from the previous 72 hours. | See also: Recent months at Munglinup West
Date/Time
WST
Temp
°C
App
Temp
°C
Dew
Point
°C
Rel
Hum
%
Delta-T
°C
Wind Press
QNH
hPa
Press
MSL
hPa
Rain since
9am
mm
Dir  Spd
km/h
Gust
km/h
Spd
kts
Gust
kts
06/05:00am 13.6 12.8 13.0 96 0.3 ESE 9 13 5 7 1014.5 1013.8 1.6
06/04:30am 13.6 12.5 13.0 96 0.3 SE 11 15 6 8 1014.3 1013.6 1.6
06/04:00am 13.7 12.6 13.1 96 0.3 SE 11 15 6 8 1014.3 1013.6 1.4
06/03:30am 13.7 12.6 13.1 96 0.3 SE 11 15 6 8 1014.3 1013.6 1.2
06/03:00am 13.9 12.9 13.3 96 0.3 SSE 11 15 6 8 1014.2 1013.5 0.8
06/02:30am 13.9 13.2 13.3 96 0.3 SSE 9 13 5 7 1014.2 1013.5 0.8
06/02:00am 13.9 13.2 13.3 96 0.3 SE 9 13 5 7 1014.0 1013.3 0.6
06/01:30am 13.9 12.4 13.1 95 0.4 ESE 13 17 7 9 1013.9 1013.2 0.6
06/01:00am 14.0 12.2 13.2 95 0.4 SE 15 20 8 11 1014.0 1013.3 0.6
06/12:30am 14.5 13.5 13.5 94 0.6 SSE 11 17 6 9 1014.3 1013.6 0.6
06/12:00am 14.7 13.3 13.4 92 0.7 SSE 13 19 7 10 1014.6 1013.9 0.6
 
Date/Time
WST
Temp
°C
App
Temp
°C
Dew
Point
°C
Rel
Hum
%
Delta-T
°C
Wind Press
QNH
hPa
Press
MSL
hPa
Rain since
9am
mm
Dir  Spd
km/h
Gust
km/h
Spd
kts
Gust
kts
05/11:30pm 14.8 13.4 13.5 92 0.7 SE 13 17 7 9 1014.7 1014.0 0.6
05/11:00pm 14.9 13.3 13.8 93 0.6 SE 15 19 8 10 1014.8 1014.1 0.6
05/10:30pm 14.9 12.9 13.8 93 0.6 SE 17 22 9 12 1014.8 1014.1 0.6
05/10:00pm 15.0 13.8 13.9 93 0.6 SE 13 19 7 10 1014.8 1014.1 0.6
05/09:30pm 15.1 13.5 13.8 92 0.7 SE 15 24 8 13 1014.5 1013.8 0.6
05/09:00pm 15.1 13.1 13.8 92 0.7 SE 17 26 9 14 1014.7 1014.0 0.6
05/08:30pm 15.3 12.9 13.8 91 0.9 SE 19 28 10 15 1014.4 1013.7 0.6
05/08:00pm 15.5 14.3 14.0 91 0.9 SSE 13 20 7 11 1014.5 1013.8 0.6
05/07:30pm 15.7 14.2 14.1 90 0.9 SSE 15 22 8 12 1014.3 1013.6 0.6
05/07:00pm 16.2 14.6 14.0 87 1.3 SSE 15 22 8 12 1014.2 1013.5 0.6
05/06:30pm 16.4 15.5 13.7 84 1.5 SE 11 15 6 8 1014.1 1013.4 0.6
05/06:00pm 16.6 15.7 13.7 83 1.7 ESE 11 15 6 8 1014.0 1013.3 0.6
05/05:30pm 16.9 15.3 14.0 83 1.7 ESE 15 19 8 10 1013.8 1013.1 0.6
05/05:00pm 16.7 14.7 14.0 84 1.5 SE 17 24 9 13 1013.7 1013.0 0.6
05/04:30pm 16.9 15.1 14.5 86 1.4 ESE 17 24 9 13 1013.6 1012.9 0.6
05/04:00pm 16.1 13.9 14.8 92 0.8 ESE 20 28 11 15 1013.6 1012.9 0.6
05/03:30pm 16.0 14.0 15.0 94 0.6 SE 19 30 10 16 1013.6 1012.9 0.6
05/03:00pm 16.0 13.4 14.9 93 0.6 SE 22 30 12 16 1013.6 1012.9 0.6
05/02:30pm 16.3 14.4 15.3 94 0.6 SE 19 28 10 15 1013.7 1013.0 0.6
05/02:00pm 16.4 14.3 14.8 90 0.9 SE 19 28 10 15 1013.8 1013.1 0.4
05/01:30pm 16.3 13.7 14.8 91 0.9 SE 22 30 12 16 1013.9 1013.2 0.2
05/01:00pm 16.5 14.5 15.0 91 0.9 SE 19 24 10 13 1013.9 1013.2 0.2
05/12:30pm 17.6 15.5 13.7 78 2.2 ESE 17 26 9 14 1014.1 1013.4 0.0
05/12:00pm 18.4 15.9 13.5 73 2.8 ESE 19 28 10 15 1014.4 1013.7 0.0
05/11:30am 18.3 16.0 14.0 76 2.5 E 19 26 10 14 1014.5 1013.8 0.0
05/11:00am 16.8 14.4 13.7 82 1.8 E 19 26 10 14 1014.8 1014.1 0.0
05/10:30am 16.6 14.3 14.1 85 1.4 E 19 26 10 14 1015.3 1014.5 0.0
05/10:00am 17.4 15.2 13.3 77 2.3 ESE 17 24 9 13 1015.4 1014.6 0.0
05/09:30am 16.4 15.3 14.4 88 1.2 E 13 20 7 11 1015.7 1014.9 0.0
05/09:00am 16.1 13.7 13.8 86 1.3 E 19 26 10 14 1015.9 1015.1 0.2
05/08:30am 16.1 13.4 13.0 82 1.7 E 19 28 10 15 1016.1 1015.3 0.2
05/08:00am 15.6 13.0 13.1 85 1.4 ESE 19 30 10 16 1016.1 1015.3 0.2
05/07:30am 15.4 13.3 13.6 89 1.0 ESE 17 24 9 13 1016.3 1015.6 0.2
05/07:00am 15.1 11.9 13.0 87 1.2 ESE 22 39 12 21 1016.3 1015.6 0.2
05/06:30am 14.6 12.0 13.1 91 0.8 ESE 19 26 10 14 1016.3 1015.6 0.2
05/06:00am 14.1 11.2 13.0 93 0.6 E 20 35 11 19 1016.0 1015.2 0.2
05/05:30am 14.0 12.2 13.2 95 0.4 ESE 15 22 8 12 1016.2 1015.4 0.2
05/05:00am 13.5 11.9 12.7 95 0.4 ESE 13 20 7 11 1016.1 1015.3 0.2
05/04:30am 13.4 11.4 12.6 95 0.4 E 15 20 8 11 1016.1 1015.3 0.2
05/04:00am 13.6 11.2 12.8 95 0.4 ESE 17 26 9 14 1016.1 1015.3 0.2
05/03:30am 13.8 11.9 13.0 95 0.4 ESE 15 22 8 12 1016.3 1015.6 0.2
05/03:00am 13.9 12.0 13.0 94 0.5 ESE 15 20 8 11 1016.4 1015.7 0.2
05/02:30am 13.7 11.7 12.8 94 0.5 ESE 15 22 8 12 1016.6 1015.9 0.2
05/02:00am 13.8 11.8 12.7 93 0.6 ESE 15 22 8 12 1016.6 1015.9 0.2
05/01:30am 14.1 12.1 12.8 92 0.7 ESE 15 24 8 13 1016.9 1016.2 0.2
05/01:00am 14.0 11.0 12.7 92 0.7 ESE 20 28 11 15 1017.1 1016.4 0.2
05/12:30am 13.9 11.2 12.8 93 0.6 ESE 19 24 10 13 1017.1 1016.4 0.2
05/12:00am 13.8 11.4 12.7 93 0.6 ESE 17 22 9 12 1017.1 1016.4 0.2
 
Date/Time
WST
Temp
°C
App
Temp
°C
Dew
Point
°C
Rel
Hum
%
Delta-T
°C
Wind Press
QNH
hPa
Press
MSL
hPa
Rain since
9am
mm
Dir  Spd
km/h
Gust
km/h
Spd
kts
Gust
kts
04/11:30pm 13.8 11.4 12.7 93 0.6 ESE 17 24 9 13 1017.4 1016.7 0.2
04/11:00pm 13.8 11.5 12.9 94 0.5 E 17 28 9 15 1017.5 1016.8 0.2
04/10:30pm 13.9 11.2 13.0 94 0.5 ESE 19 30 10 16 1018.1 1017.4 0.2
04/10:00pm 13.8 11.4 12.7 93 0.6 ESE 17 26 9 14 1018.2 1017.5 0.2
04/09:30pm 14.2 11.6 13.1 93 0.6 ESE 19 28 10 15 1018.6 1017.9 0.2
04/09:00pm 14.3 11.1 13.2 93 0.6 ESE 22 30 12 16 1018.6 1017.9 0.2
04/08:30pm 14.3 11.5 13.2 93 0.6 ESE 20 28 11 15 1018.3 1017.6 0.2
04/08:00pm 14.2 10.3 13.2 94 0.6 SE 26 33 14 18 1018.0 1017.3 0.2
04/07:30pm 14.3 10.8 13.3 94 0.6 SE 24 32 13 17 1017.9 1017.2 0.2
04/07:00pm 14.4 11.3 13.4 94 0.6 SE 22 30 12 16 1018.0 1017.3 0.2
04/06:30pm 14.5 10.6 13.2 92 0.7 SE 26 35 14 19 1017.9 1017.2 0.2
04/06:00pm 14.7 11.7 13.6 93 0.6 ESE 22 35 12 19 1017.8 1017.1 0.2
04/05:30pm 15.2 11.9 12.9 86 1.3 ESE 22 30 12 16 1017.7 1017.0 0.2
04/05:00pm 15.6 12.2 12.5 82 1.7 SE 22 30 12 16 1017.6 1016.9 0.2
04/04:30pm 16.2 12.1 12.6 79 2.0 ESE 26 35 14 19 1017.1 1016.4 0.2
04/04:00pm 16.2 11.7 12.6 79 2.0 ESE 28 35 15 19 1016.9 1016.2 0.2
04/03:30pm 17.7 13.6 12.6 72 2.9 ESE 26 35 14 19 1016.6 1015.9 0.2
04/03:00pm 17.7 12.8 12.4 71 3.0 ESE 30 41 16 22 1016.5 1015.8 0.2
04/02:30pm 17.2 12.0 12.7 75 2.5 ESE 32 41 17 22 1016.6 1015.9 0.2
04/02:00pm 16.3 11.3 13.4 83 1.6 ESE 32 44 17 24 1017.0 1016.3 0.2
04/01:30pm 17.3 12.3 13.4 78 2.2 SE 32 43 17 23 1017.2 1016.5 0.2
04/01:00pm 16.7 11.8 13.8 83 1.7 SE 32 44 17 24 1017.4 1016.7 0.2
04/12:30pm 17.6 14.1 16.5 93 0.7 SE 30 43 16 23 1017.6 1016.9 0.2
04/12:00pm 16.8 13.4 14.8 88 1.2 SE 26 35 14 19 1018.2 1017.5 0.0
04/11:30am 16.6 13.5 14.4 87 1.3 SE 24 32 13 17 1018.5 1017.8 0.0
04/11:00am 16.3 13.2 14.5 89 1.0 SE 24 32 13 17 1019.2 1018.5 0.0
04/10:30am 16.0 13.6 13.8 87 1.3 ESE 19 26 10 14 1019.2 1018.5 0.0
04/10:00am 16.2 13.5 14.7 91 0.9 SE 22 32 12 17 1019.0 1018.3 0.0
04/09:30am 15.6 12.5 14.6 94 0.6 SE 24 33 13 18 1018.8 1018.1 0.0
04/09:00am 14.8 12.5 14.0 95 0.5 ESE 19 28 10 15 1018.9 1018.2 2.6
04/08:30am 14.5 12.8 13.7 95 0.5 SE 15 22 8 12 1019.9 1019.1 1.8
04/08:00am 14.1 11.9 13.3 95 0.4 SE 17 26 9 14 1020.1 1019.3 1.6
04/07:30am 14.4 11.9 13.6 95 0.5 SE 19 28 10 15 1020.0 1019.2 1.6
04/07:00am 14.2 11.7 13.6 96 0.3 SE 19 30 10 16 1019.3 1018.6 1.6
04/06:30am 14.0 11.8 13.4 96 0.3 SE 17 30 9 16 1019.1 1018.4 1.6
04/06:00am 13.9 10.8 13.3 96 0.3 SE 22 32 12 17 1017.7 1017.0 1.4
04/05:30am 13.9 10.8 13.3 96 0.3 SE 22 33 12 18 1018.5 1017.8 1.4
04/05:00am 13.9 11.7 13.3 96 0.3 SE 17 24 9 13 1018.5 1017.8 1.0
04/04:30am 14.0 10.9 13.4 96 0.3 SE 22 32 12 17 1017.0 1016.3 1.0
04/04:00am 14.0 10.5 13.4 96 0.3 SE 24 32 13 17 1016.6 1015.9 1.0
04/03:30am 14.4 12.0 13.8 96 0.3 SE 19 30 10 16 1016.8 1016.1 0.8
04/03:00am 14.5 12.4 13.5 94 0.6 SSE 17 26 9 14 1016.1 1015.3 0.4
04/02:30am 14.7 13.3 13.4 92 0.7 SE 13 20 7 11 1016.9 1016.2 0.4
04/02:00am 14.5 13.0 13.2 92 0.7 SE 13 20 7 11 1016.2 1015.4 0.4
04/01:30am 14.4 11.7 12.8 90 0.9 SE 19 30 10 16 1016.9 1016.2 0.4
04/01:00am 14.5 12.4 12.5 88 1.1 SE 15 20 8 11 1016.4 1015.7 0.4
04/12:30am 14.8 11.3 12.3 85 1.4 SE 22 32 12 17 1016.1 1015.3 0.0
04/12:00am 15.2 11.6 12.0 81 1.8 SE 22 32 12 17 1016.5 1015.8 0.0
 
Date/Time
WST
Temp
°C
App
Temp
°C
Dew
Point
°C
Rel
Hum
%
Delta-T
°C
Wind Press
QNH
hPa
Press
MSL
hPa
Rain since
9am
mm
Dir  Spd
km/h
Gust
km/h
Spd
kts
Gust
kts
03/11:30pm 15.2 11.3 12.0 81 1.8 SE 24 30 13 16 1016.5 1015.8 0.0
03/11:00pm 15.4 11.4 11.8 79 2.0 SE 24 33 13 18 1016.5 1015.8 0.0
03/10:30pm 15.5 12.3 11.9 79 2.0 SE 20 30 11 16 1017.4 1016.7 0.0
03/10:00pm 15.6 12.0 11.8 78 2.1 SE 22 33 12 18 1017.0 1016.3 0.0
03/09:30pm 15.7 12.1 11.9 78 2.1 SE 22 32 12 17 1017.3 1016.6 0.0
03/09:00pm 15.8 12.1 11.6 76 2.3 SE 22 32 12 17 1017.3 1016.6 0.0
03/08:30pm 15.8 12.6 12.0 78 2.1 SE 20 28 11 15 1016.7 1016.0 0.0
03/08:00pm 15.7 11.7 11.9 78 2.1 SE 24 32 13 17 1016.8 1016.1 0.0
03/07:30pm 15.8 11.8 11.8 77 2.2 SE 24 35 13 19 1016.2 1015.4 0.0
03/07:00pm 16.0 11.6 10.5 70 2.9 SE 24 33 13 18 1016.2 1015.4 0.0
03/06:30pm 16.4 12.0 10.5 68 3.2 SE 24 33 13 18 1015.6 1014.8 0.0
03/06:00pm 16.7 13.1 11.8 73 2.7 SSE 22 32 12 17 1015.6 1014.8 0.0
03/05:30pm 17.1 13.5 10.7 66 3.5 SSE 20 30 11 16 1015.2 1014.4 0.0
03/05:00pm 17.9 14.0 10.8 63 3.9 SSE 22 32 12 17 1014.7 1014.0 0.0
03/04:30pm 19.9 16.1 11.1 57 4.9 SSE 22 32 12 17 1014.3 1013.6 0.0
03/04:00pm 19.5 15.3 11.0 58 4.7 SE 24 37 13 20 1014.1 1013.4 0.0
03/03:30pm 20.4 17.0 11.1 55 5.2 SSE 20 32 11 17 1013.9 1013.2 0.0
03/03:00pm 21.3 17.8 10.8 51 5.8 SSE 20 30 11 16 1013.7 1013.0 0.0
03/02:30pm 21.5 17.2 10.9 51 5.9 SSE 24 39 13 21 1013.3 1012.6 0.0
03/02:00pm 21.6 17.6 10.4 49 6.2 SSE 22 35 12 19 1013.6 1012.9 0.0
03/01:30pm 21.4 17.0 10.3 49 6.1 SE 24 35 13 19 1013.5 1012.8 0.0
03/01:00pm 22.4 18.6 11.2 49 6.3 SSE 22 35 12 19 1013.4 1012.7 0.0
03/12:30pm 23.6 21.2 11.3 46 7.0 SSE 15 24 8 13 1013.6 1012.9 0.0
03/12:00pm 23.0 19.0 10.4 45 7.0 SE 22 32 12 17 1013.7 1013.0 0.0
03/11:30am 22.4 19.4 10.5 47 6.6 SSE 17 26 9 14 1013.6 1012.9 0.0
03/11:00am 22.2 19.4 11.3 50 6.1 SSE 17 30 9 16 1013.7 1013.0 0.0
03/10:30am 21.8 19.1 10.3 48 6.3 SE 15 24 8 13 1013.9 1013.2 0.0
03/10:00am 21.1 18.8 10.3 50 5.9 SSE 13 22 7 12 1014.1 1013.4 0.0
03/09:30am 20.5 18.3 10.9 54 5.3 SSE 13 20 7 11 1014.3 1013.6 0.0
03/09:00am 19.9 17.5 11.4 58 4.7 ESE 15 28 8 15 1014.0 1013.3 0.0
03/08:30am 18.9 16.4 11.2 61 4.2 SE 15 22 8 12 1014.1 1013.4 0.0
03/08:00am 17.7 15.6 11.0 65 3.7 SSE 13 26 7 14 1014.3 1013.6 0.0
03/07:30am 17.2 15.1 11.0 67 3.4 SSE 13 24 7 13 1014.4 1013.7 0.0
03/07:00am 15.7 13.5 10.7 72 2.7 SSE 13 20 7 11 1014.0 1013.3 0.0
03/06:30am 15.2 13.1 11.0 76 2.3 SSE 13 20 7 11 1013.8 1013.1 0.0
03/06:00am 15.0 12.9 11.0 77 2.1 SSE 13 19 7 10 1013.5 1012.8 0.0
03/05:30am 14.5 12.3 10.7 78 2.0 SE 13 20 7 11 1013.4 1012.7 0.0

Other formats

Comma delimited format used in spreadsheet applications
http://www.bom.gov.au/fwo/IDW60801/IDW60801.95644.axf

JavaScript Object Notation format (JSON) in row-major order
http://www.bom.gov.au/fwo/IDW60801/IDW60801.95644.json

Data quality

Most of these data are generated automatically and are frequently updated. Quality checks on data are not normally performed. It is possible for incorrect values to appear. Refer to information at About Latest Weather Observations and please check the disclaimer before using these data.